createdAt,value
2017-08-26T00:00:48.607Z,99.99
2017-08-26T00:01:48.597Z,99.99
2017-08-26T00:02:48.646Z,99.99
2017-08-26T00:03:48.702Z,99.99
2017-08-26T00:04:48.751Z,99.99
2017-08-26T00:05:48.886Z,99.99
2017-08-26T00:06:48.856Z,99.99
2017-08-26T00:07:48.910Z,99.99
2017-08-26T00:08:48.959Z,99.99
2017-08-26T00:09:49.012Z,99.99
2017-08-26T00:10:49.148Z,99.99
2017-08-26T00:11:49.117Z,99.99
2017-08-26T00:12:49.169Z,99.99
2017-08-26T00:13:49.219Z,99.99
2017-08-26T00:14:49.273Z,99.99
2017-08-26T00:15:49.392Z,99.99
2017-08-26T00:16:49.443Z,99.99
2017-08-26T00:17:49.428Z,99.99
2017-08-26T00:18:49.483Z,99.99
2017-08-26T00:19:49.537Z,99.99
2017-08-26T00:20:49.588Z,99.99
2017-08-26T00:21:49.723Z,99.99
2017-08-26T00:22:49.692Z,99.99
2017-08-26T00:23:49.744Z,99.99
2017-08-26T00:24:49.796Z,99.99
2017-08-26T00:25:49.851Z,99.99
2017-08-26T00:26:49.984Z,99.99
2017-08-26T00:27:49.966Z,99.99
2017-08-26T00:28:50.006Z,99.99
2017-08-26T00:29:50.055Z,99.99
2017-08-26T00:30:50.109Z,99.99
2017-08-26T00:31:50.227Z,99.99
2017-08-26T00:32:50.281Z,99.99
2017-08-26T00:33:50.267Z,99.99
2017-08-26T00:34:50.319Z,99.99
2017-08-26T00:35:50.370Z,99.99
2017-08-26T00:36:50.422Z,99.99
2017-08-26T00:37:50.540Z,99.99
2017-08-26T00:38:50.529Z,99.99
2017-08-26T00:39:50.580Z,99.99
2017-08-26T00:40:50.638Z,99.99
2017-08-26T00:41:50.683Z,99.99
2017-08-26T00:42:50.802Z,99.99
2017-08-26T00:43:50.789Z,99.99
2017-08-26T00:44:50.838Z,99.99
2017-08-26T00:45:50.893Z,99.99
2017-08-26T00:46:50.948Z,99.99
2017-08-26T00:47:51.061Z,99.99
2017-08-26T00:48:51.049Z,99.99
2017-08-26T00:49:51.103Z,99.99
2017-08-26T00:50:51.155Z,99.99
2017-08-26T00:51:51.206Z,99.99
2017-08-26T00:52:51.330Z,99.99
2017-08-26T00:53:51.310Z,99.99
2017-08-26T00:54:51.367Z,99.99
2017-08-26T00:55:51.420Z,99.99
2017-08-26T00:56:51.468Z,99.99
2017-08-26T00:57:51.605Z,99.99
2017-08-26T00:58:51.571Z,99.99
2017-08-26T00:59:51.624Z,99.99
2017-08-26T01:00:51.675Z,99.99
2017-08-26T01:01:51.729Z,99.99
2017-08-26T01:02:51.842Z,99.99
2017-08-26T01:03:51.896Z,99.99
2017-08-26T01:04:51.882Z,99.99
2017-08-26T01:05:51.943Z,99.99
2017-08-26T01:06:51.988Z,99.99
2017-08-26T01:07:52.043Z,99.99
2017-08-26T01:08:52.155Z,99.99
2017-08-26T01:09:52.143Z,99.99
2017-08-26T01:10:52.198Z,99.99
2017-08-26T01:11:52.250Z,99.99
2017-08-26T01:12:52.301Z,99.99
2017-08-26T01:13:52.438Z,99.99
2017-08-26T01:14:52.402Z,99.99
2017-08-26T01:15:52.462Z,99.99
2017-08-26T01:16:52.510Z,99.99
2017-08-26T01:17:52.560Z,99.99
2017-08-26T01:18:52.702Z,99.99
2017-08-26T01:19:52.666Z,99.99
2017-08-26T01:20:52.729Z,99.99
2017-08-26T01:21:52.775Z,99.99
2017-08-26T01:22:52.822Z,99.99
2017-08-26T01:23:52.958Z,99.99
2017-08-26T01:24:52.926Z,99.99
2017-08-26T01:25:52.988Z,99.99
2017-08-26T01:26:53.029Z,99.99
2017-08-26T01:27:53.081Z,99.99
2017-08-26T01:28:53.196Z,99.99
2017-08-26T01:29:53.250Z,99.99
2017-08-26T01:30:53.238Z,99.99
2017-08-26T01:31:53.302Z,99.99
2017-08-26T01:32:53.343Z,99.99
2017-08-26T01:33:53.394Z,99.99
2017-08-26T01:34:53.515Z,99.99
2017-08-26T01:35:53.497Z,99.99
2017-08-26T01:36:53.554Z,99.99
2017-08-26T01:37:53.601Z,99.99
2017-08-26T01:38:53.658Z,99.99
2017-08-26T01:39:53.777Z,99.99
2017-08-26T01:40:53.757Z,99.99
2017-08-26T01:41:53.808Z,99.99
2017-08-26T01:42:53.865Z,99.99
2017-08-26T01:43:53.914Z,99.99
2017-08-26T01:44:54.045Z,99.99
2017-08-26T01:45:54.037Z,99.99
2017-08-26T01:46:54.068Z,99.99
2017-08-26T01:47:54.123Z,99.99
2017-08-26T01:48:54.170Z,99.99
2017-08-26T01:49:54.341Z,99.99
2017-08-26T01:50:54.274Z,99.99
2017-08-26T01:51:54.326Z,99.99
2017-08-26T01:52:54.378Z,99.99
2017-08-26T01:53:54.429Z,99.99
2017-08-26T01:54:54.569Z,99.99
2017-08-26T01:55:54.535Z,99.99
2017-08-26T01:56:54.588Z,99.99
2017-08-26T01:57:54.639Z,99.99
2017-08-26T01:58:54.690Z,99.99
2017-08-26T01:59:54.809Z,99.99
2017-08-26T02:00:54.797Z,99.99
2017-08-26T02:01:54.846Z,99.99
2017-08-26T02:02:54.898Z,99.99
2017-08-26T02:03:54.949Z,99.99
2017-08-26T02:04:55.083Z,99.99
2017-08-26T02:05:55.054Z,99.99
2017-08-26T02:06:55.105Z,99.99
2017-08-26T02:07:55.162Z,99.99
2017-08-26T02:08:55.210Z,99.99
2017-08-26T02:09:55.327Z,99.99
2017-08-26T02:10:55.315Z,99.99
2017-08-26T02:11:55.368Z,99.99
2017-08-26T02:12:55.416Z,99.99
2017-08-26T02:13:55.476Z,99.99
2017-08-26T02:14:55.609Z,99.99
2017-08-26T02:15:55.574Z,99.99
2017-08-26T02:16:55.623Z,99.99
2017-08-26T02:17:55.677Z,99.99
2017-08-26T02:18:55.729Z,99.99
2017-08-26T02:19:55.849Z,99.99
2017-08-26T02:20:55.898Z,99.99
2017-08-26T02:21:55.884Z,99.99
2017-08-26T02:22:55.935Z,99.99
2017-08-26T02:23:55.988Z,99.99
2017-08-26T02:24:56.040Z,99.99
2017-08-26T02:25:56.155Z,99.99
2017-08-26T02:26:56.148Z,99.99
2017-08-26T02:27:56.194Z,99.99
2017-08-26T02:28:56.246Z,99.99
2017-08-26T02:29:56.301Z,99.99
2017-08-26T02:30:56.427Z,99.99
2017-08-26T02:31:56.406Z,99.99
2017-08-26T02:32:56.454Z,99.99
2017-08-26T02:33:56.506Z,99.99
2017-08-26T02:34:56.566Z,99.99
2017-08-26T02:35:56.693Z,99.99
2017-08-26T02:36:56.661Z,99.99
2017-08-26T02:37:56.713Z,99.99
2017-08-26T02:38:57.763Z,99.99
2017-08-26T02:39:56.818Z,99.99
2017-08-26T02:40:56.942Z,99.99
2017-08-26T02:41:56.923Z,99.99
2017-08-26T02:42:56.971Z,99.99
2017-08-26T02:43:57.027Z,99.99
2017-08-26T02:44:57.075Z,99.99
2017-08-26T02:45:57.211Z,99.99
2017-08-26T02:46:57.179Z,99.99
2017-08-26T02:47:57.230Z,99.99
2017-08-26T02:48:57.281Z,99.99
2017-08-26T02:49:57.336Z,99.99
2017-08-26T02:50:57.462Z,99.99
2017-08-26T02:51:57.439Z,99.99
2017-08-26T02:52:57.489Z,99.99
2017-08-26T02:53:57.546Z,99.99
2017-08-26T02:54:57.593Z,99.99
2017-08-26T02:55:57.729Z,99.99
2017-08-26T02:56:57.706Z,99.99
2017-08-26T02:57:57.748Z,99.99
2017-08-26T02:58:57.796Z,99.99
2017-08-26T02:59:57.854Z,99.99
2017-08-26T03:00:57.969Z,99.99
2017-08-26T03:01:58.018Z,99.99
2017-08-26T03:02:58.009Z,99.99
2017-08-26T03:03:58.058Z,99.99
2017-08-26T03:04:58.110Z,99.99
2017-08-26T03:05:58.162Z,99.99
2017-08-26T03:06:58.296Z,99.99
2017-08-26T03:07:58.265Z,99.99
2017-08-26T03:08:58.317Z,99.99
2017-08-26T03:09:58.369Z,99.99
2017-08-26T03:10:58.420Z,99.99
2017-08-26T03:11:58.552Z,99.99
2017-08-26T03:12:58.527Z,99.99
2017-08-26T03:13:58.580Z,99.99
2017-08-26T03:14:58.631Z,99.99
2017-08-26T03:15:58.679Z,99.99
2017-08-26T03:16:58.793Z,99.99
2017-08-26T03:17:58.846Z,99.99
2017-08-26T03:18:58.837Z,99.99
2017-08-26T03:19:58.887Z,99.99
2017-08-26T03:20:58.938Z,99.99
2017-08-26T03:21:58.990Z,99.99
2017-08-26T03:22:59.111Z,99.99
2017-08-26T03:23:59.097Z,99.99
2017-08-26T03:24:59.145Z,99.99
2017-08-26T03:25:59.197Z,99.99
2017-08-26T03:26:59.249Z,99.99
2017-08-26T03:27:59.376Z,99.99
2017-08-26T03:28:59.353Z,99.99
2017-08-26T03:29:59.404Z,99.99
2017-08-26T03:30:59.464Z,99.99
2017-08-26T03:31:59.509Z,99.99
2017-08-26T03:32:59.625Z,99.99
2017-08-26T03:33:59.610Z,99.99
2017-08-26T03:34:59.663Z,99.99
2017-08-26T03:35:59.717Z,99.99
2017-08-26T03:36:59.764Z,99.99
2017-08-26T03:37:59.893Z,99.99
2017-08-26T03:38:59.867Z,99.99
2017-08-26T03:39:59.919Z,99.99
2017-08-26T03:40:59.971Z,99.99
2017-08-26T03:42:00.023Z,99.99
2017-08-26T03:43:00.141Z,99.99
2017-08-26T03:44:00.190Z,99.99
2017-08-26T03:45:00.177Z,99.99
2017-08-26T03:46:00.234Z,99.99
2017-08-26T03:47:00.281Z,99.99
2017-08-26T03:48:00.333Z,99.99
2017-08-26T03:49:00.470Z,99.99
2017-08-26T03:50:00.437Z,99.99
2017-08-26T03:51:00.488Z,99.99
2017-08-26T03:52:00.540Z,99.99
2017-08-26T03:53:00.592Z,99.99
2017-08-26T03:54:00.718Z,99.99
2017-08-26T03:55:00.693Z,99.99
2017-08-26T03:56:00.747Z,99.99
2017-08-26T03:57:00.796Z,99.99
2017-08-26T03:58:00.848Z,99.99
2017-08-26T03:59:00.981Z,99.99
2017-08-26T04:00:00.951Z,99.99
2017-08-26T04:01:01.003Z,99.99
2017-08-26T04:02:01.055Z,99.99
2017-08-26T04:03:01.106Z,99.99
2017-08-26T04:04:01.246Z,99.99
2017-08-26T04:05:01.221Z,99.99
2017-08-26T04:06:01.263Z,99.99
2017-08-26T04:07:01.314Z,99.99
2017-08-26T04:08:01.364Z,99.99
2017-08-26T04:09:01.492Z,99.99
2017-08-26T04:10:01.469Z,99.99
2017-08-26T04:11:01.521Z,99.99
2017-08-26T04:12:01.576Z,99.99
2017-08-26T04:13:01.622Z,99.99
2017-08-26T04:14:01.759Z,99.99
2017-08-26T04:15:01.728Z,99.99
2017-08-26T04:16:01.777Z,99.99
2017-08-26T04:17:01.829Z,99.99
2017-08-26T04:18:01.883Z,99.99
2017-08-26T04:19:01.999Z,99.99
2017-08-26T04:20:02.051Z,99.99
2017-08-26T04:21:02.036Z,99.99
2017-08-26T04:22:02.091Z,99.99
2017-08-26T04:23:02.140Z,99.99
2017-08-26T04:24:02.191Z,99.99
2017-08-26T04:25:02.307Z,99.99
2017-08-26T04:26:02.295Z,99.99
2017-08-26T04:27:02.347Z,99.99
2017-08-26T04:28:02.396Z,99.99
2017-08-26T04:29:02.453Z,99.99
2017-08-26T04:30:02.568Z,99.99
2017-08-26T04:31:02.553Z,99.99
2017-08-26T04:32:02.605Z,99.99
2017-08-26T04:33:02.657Z,99.99
2017-08-26T04:34:02.712Z,99.99
2017-08-26T04:35:02.824Z,99.99
2017-08-26T04:36:02.816Z,99.99
2017-08-26T04:37:02.864Z,99.99
2017-08-26T04:38:02.920Z,99.99
2017-08-26T04:39:02.968Z,99.99
2017-08-26T04:40:03.102Z,99.99
2017-08-26T04:41:03.071Z,99.99
2017-08-26T04:42:03.126Z,99.99
2017-08-26T04:43:03.175Z,99.99
2017-08-26T04:44:03.229Z,99.99
2017-08-26T04:45:03.365Z,99.99
2017-08-26T04:46:03.330Z,99.99
2017-08-26T04:47:03.382Z,99.99
2017-08-26T04:48:03.434Z,99.99
2017-08-26T04:49:03.483Z,99.99
2017-08-26T04:50:03.622Z,99.99
2017-08-26T04:51:03.600Z,99.99
2017-08-26T04:52:03.641Z,99.99
2017-08-26T04:53:03.687Z,99.99
2017-08-26T04:54:03.742Z,99.99
2017-08-26T04:55:03.857Z,99.99
2017-08-26T04:56:03.916Z,99.99
2017-08-26T04:57:03.897Z,99.99
2017-08-26T04:58:03.949Z,99.99
2017-08-26T04:59:04.004Z,99.99
2017-08-26T05:00:04.056Z,99.99
2017-08-26T05:01:04.369Z,99.99
2017-08-26T05:02:04.155Z,99.99
2017-08-26T05:03:04.207Z,99.99
2017-08-26T05:04:04.259Z,99.99
2017-08-26T05:05:04.311Z,99.99
2017-08-26T05:06:04.424Z,99.99
2017-08-26T05:07:04.412Z,99.99
2017-08-26T05:08:04.471Z,99.99
2017-08-26T05:09:04.515Z,99.99
2017-08-26T05:10:04.567Z,99.99
2017-08-26T05:11:04.684Z,99.99
2017-08-26T05:12:04.677Z,99.99
2017-08-26T05:13:04.722Z,99.99
2017-08-26T05:14:04.771Z,99.99
2017-08-26T05:15:04.826Z,99.99
2017-08-26T05:16:04.960Z,99.99
2017-08-26T05:17:04.927Z,99.99
2017-08-26T05:18:04.978Z,99.99
2017-08-26T05:19:05.030Z,99.99
2017-08-26T05:20:05.082Z,99.99
2017-08-26T05:21:05.197Z,99.99
2017-08-26T05:22:05.255Z,99.99
2017-08-26T05:23:05.238Z,99.99
2017-08-26T05:24:05.292Z,99.99
2017-08-26T05:25:05.341Z,99.99
2017-08-26T05:26:05.396Z,99.99
2017-08-26T05:27:05.529Z,99.99
2017-08-26T05:28:05.493Z,99.99
2017-08-26T05:29:05.570Z,99.99
2017-08-26T05:30:05.597Z,99.99
2017-08-26T05:31:05.649Z,99.99
2017-08-26T05:32:05.772Z,99.99
2017-08-26T05:33:05.752Z,99.99
2017-08-26T05:34:05.808Z,99.99
2017-08-26T05:35:05.859Z,99.99
2017-08-26T05:36:05.908Z,99.99
2017-08-26T05:37:06.026Z,99.99
2017-08-26T05:38:06.074Z,99.99
2017-08-26T05:39:06.063Z,99.99
2017-08-26T05:40:06.114Z,99.99
2017-08-26T05:41:06.166Z,99.99
2017-08-26T05:42:06.218Z,99.99
2017-08-26T05:43:06.336Z,99.99
2017-08-26T05:44:06.322Z,99.99
2017-08-26T05:45:06.378Z,99.99
2017-08-26T05:46:06.425Z,99.99
2017-08-26T05:47:06.477Z,99.99
2017-08-26T05:48:06.592Z,99.99
2017-08-26T05:49:06.586Z,99.99
2017-08-26T05:50:06.632Z,99.99
2017-08-26T05:51:06.685Z,99.99
2017-08-26T05:52:06.736Z,99.99
2017-08-26T05:53:06.851Z,99.99
2017-08-26T05:54:06.840Z,99.99
2017-08-26T05:55:06.894Z,99.99
2017-08-26T05:56:06.943Z,99.99
2017-08-26T05:57:06.994Z,99.99
2017-08-26T05:58:07.115Z,99.99
2017-08-26T05:59:07.104Z,99.99
2017-08-26T06:00:07.153Z,99.99
2017-08-26T06:01:07.205Z,99.99
2017-08-26T06:02:07.256Z,99.99
2017-08-26T06:03:07.395Z,99.99
2017-08-26T06:04:07.359Z,99.99
2017-08-26T06:05:07.415Z,99.99
2017-08-26T06:06:07.468Z,99.99
2017-08-26T06:07:07.523Z,99.99
2017-08-26T06:08:07.659Z,99.99
2017-08-26T06:09:07.621Z,99.99
2017-08-26T06:10:07.675Z,99.99
2017-08-26T06:11:07.722Z,99.99
2017-08-26T06:12:07.776Z,99.99
2017-08-26T06:13:07.911Z,99.99
2017-08-26T06:14:07.883Z,99.98
2017-08-26T06:15:07.934Z,99.50
2017-08-26T06:16:07.986Z,99.79
2017-08-26T06:17:08.040Z,97.38
2017-08-26T06:18:08.172Z,97.76
2017-08-26T06:19:08.141Z,96.51
2017-08-26T06:20:08.195Z,96.03
2017-08-26T06:21:08.249Z,95.45
2017-08-26T06:22:08.301Z,96.56
2017-08-26T06:23:08.414Z,97.33
2017-08-26T06:24:08.471Z,95.79
2017-08-26T06:25:08.454Z,95.02
2017-08-26T06:26:08.509Z,94.63
2017-08-26T06:27:08.561Z,92.61
2017-08-26T06:28:08.618Z,94.24
2017-08-26T06:29:08.751Z,91.98
2017-08-26T06:30:08.722Z,91.69
2017-08-26T06:31:08.770Z,91.40
2017-08-26T06:32:08.828Z,91.50
2017-08-26T06:33:08.876Z,91.30
2017-08-26T06:34:09.010Z,92.12
2017-08-26T06:35:08.980Z,90.29
2017-08-26T06:36:09.037Z,90.38
2017-08-26T06:37:09.084Z,90.09
2017-08-26T06:38:09.138Z,89.51
2017-08-26T06:39:09.256Z,90.14
2017-08-26T06:40:09.313Z,88.69
2017-08-26T06:41:09.301Z,90.14
2017-08-26T06:42:09.350Z,88.40
2017-08-26T06:43:09.404Z,86.86
2017-08-26T06:44:09.454Z,85.60
2017-08-26T06:45:09.575Z,86.38
2017-08-26T06:46:09.563Z,87.19
2017-08-26T06:47:09.614Z,84.14
2017-08-26T06:48:09.669Z,82.93
2017-08-26T06:49:09.721Z,80.16
2017-08-26T06:50:09.839Z,78.66
2017-08-26T06:51:09.825Z,76.18
2017-08-26T06:52:09.881Z,76.79
2017-08-26T06:53:09.941Z,75.15
2017-08-26T06:54:09.987Z,72.67
2017-08-26T06:55:10.107Z,72.28
2017-08-26T06:56:10.096Z,72.02
2017-08-26T06:57:10.147Z,71.28
2017-08-26T06:58:10.205Z,70.28
2017-08-26T06:59:10.257Z,70.51
2017-08-26T07:00:10.401Z,71.67
2017-08-26T07:01:10.368Z,70.83
2017-08-26T07:02:10.419Z,70.31
2017-08-26T07:03:10.472Z,70.21
2017-08-26T07:04:10.529Z,68.99
2017-08-26T07:05:10.678Z,69.41
2017-08-26T07:06:10.635Z,69.09
2017-08-26T07:07:10.690Z,69.83
2017-08-26T07:08:10.744Z,71.12
2017-08-26T07:09:10.799Z,70.80
2017-08-26T07:10:10.949Z,71.54
2017-08-26T07:11:10.907Z,71.70
2017-08-26T07:12:10.962Z,70.76
2017-08-26T07:13:11.016Z,70.96
2017-08-26T07:14:11.076Z,70.41
2017-08-26T07:15:11.212Z,70.93
2017-08-26T07:16:11.185Z,69.48
2017-08-26T07:17:11.236Z,68.35
2017-08-26T07:18:11.290Z,69.06
2017-08-26T07:19:11.356Z,68.51
2017-08-26T07:20:11.485Z,66.60
2017-08-26T07:21:11.454Z,65.88
2017-08-26T07:22:11.517Z,65.30
2017-08-26T07:23:11.569Z,63.68
2017-08-26T07:24:11.619Z,63.61
2017-08-26T07:25:11.762Z,60.69
2017-08-26T07:26:11.731Z,62.15
2017-08-26T07:27:11.786Z,61.73
2017-08-26T07:28:11.848Z,62.19
2017-08-26T07:29:11.899Z,63.87
2017-08-26T07:30:12.036Z,62.99
2017-08-26T07:31:12.009Z,62.15
2017-08-26T07:32:12.065Z,62.41
2017-08-26T07:33:12.120Z,61.44
2017-08-26T07:34:12.183Z,63.68
2017-08-26T07:35:12.298Z,62.67
2017-08-26T07:36:12.355Z,63.06
2017-08-26T07:37:12.343Z,63.65
2017-08-26T07:38:12.400Z,64.98
2017-08-26T07:39:12.457Z,66.02
2017-08-26T07:40:12.514Z,66.99
2017-08-26T07:41:12.633Z,68.05
2017-08-26T07:42:12.625Z,68.74
2017-08-26T07:43:12.685Z,67.99
2017-08-26T07:44:12.737Z,68.54
2017-08-26T07:45:12.794Z,70.13
2017-08-26T07:46:12.933Z,69.45
2017-08-26T07:47:12.908Z,69.29
2017-08-26T07:48:12.968Z,68.64
2017-08-26T07:49:13.022Z,68.45
2017-08-26T07:50:13.081Z,67.35
2017-08-26T07:51:13.200Z,68.44
2017-08-26T07:52:13.419Z,69.96
2017-08-26T07:53:13.245Z,70.00
2017-08-26T07:54:13.846Z,69.48
2017-08-26T07:55:13.360Z,69.48
2017-08-26T07:56:13.423Z,70.20
2017-08-26T07:57:13.534Z,69.42
2017-08-26T07:58:13.528Z,69.16
2017-08-26T07:59:13.588Z,69.65
2017-08-26T08:00:13.642Z,69.74
2017-08-26T08:01:13.697Z,68.90
2017-08-26T08:02:13.825Z,71.36
2017-08-26T08:03:13.810Z,72.88
2017-08-26T08:04:13.867Z,75.47
2017-08-26T08:05:13.928Z,75.57
2017-08-26T08:06:13.982Z,75.57
2017-08-26T08:07:14.118Z,76.54
2017-08-26T08:08:14.093Z,77.31
2017-08-26T08:09:14.148Z,77.12
2017-08-26T08:10:14.209Z,77.45
2017-08-26T08:11:14.262Z,76.97
2017-08-26T08:12:14.385Z,76.12
2017-08-26T08:13:14.439Z,76.57
2017-08-26T08:14:14.432Z,78.97
2017-08-26T08:15:14.487Z,78.71
2017-08-26T08:16:14.544Z,78.07
2017-08-26T08:17:14.601Z,77.14
2017-08-26T08:18:14.729Z,76.17
2017-08-26T08:19:14.717Z,74.74
2017-08-26T08:20:14.774Z,74.65
2017-08-26T08:21:14.826Z,74.18
2017-08-26T08:22:14.883Z,76.17
2017-08-26T08:23:15.025Z,74.71
2017-08-26T08:24:14.998Z,75.38
2017-08-26T08:25:15.055Z,75.29
2017-08-26T08:26:15.112Z,74.67
2017-08-26T08:27:15.176Z,76.09
2017-08-26T08:28:15.289Z,75.70
2017-08-26T08:29:15.347Z,75.70
2017-08-26T08:30:15.340Z,75.51
2017-08-26T08:31:15.407Z,75.48
2017-08-26T08:32:15.454Z,75.13
2017-08-26T08:33:15.514Z,71.95
2017-08-26T08:34:15.632Z,70.33
2017-08-26T08:35:15.625Z,71.34
2017-08-26T08:36:15.685Z,68.84
2017-08-26T08:37:16.510Z,70.56
2017-08-26T08:38:15.796Z,70.17
2017-08-26T08:39:15.940Z,69.52
2017-08-26T08:40:15.910Z,69.75
2017-08-26T08:41:15.967Z,68.35
2017-08-26T08:42:16.028Z,68.80
2017-08-26T08:43:16.084Z,67.35
2017-08-26T08:44:16.229Z,66.21
2017-08-26T08:45:16.199Z,63.74
2017-08-26T08:46:16.260Z,63.84
2017-08-26T08:47:16.316Z,59.81
2017-08-26T08:48:16.378Z,60.89
2017-08-26T08:49:16.516Z,61.21
2017-08-26T08:50:16.489Z,61.11
2017-08-26T08:51:16.549Z,60.89
2017-08-26T08:52:16.606Z,61.18
2017-08-26T08:53:16.662Z,61.96
2017-08-26T08:54:16.786Z,62.09
2017-08-26T08:55:16.846Z,62.41
2017-08-26T08:56:16.838Z,63.32
2017-08-26T08:57:16.899Z,59.84
2017-08-26T08:58:16.953Z,57.24
2017-08-26T08:59:17.013Z,57.60
2017-08-26T09:00:17.136Z,59.48
2017-08-26T09:01:17.129Z,62.82
2017-08-26T09:02:17.187Z,57.36
2017-08-26T09:03:17.267Z,57.23
2017-08-26T09:04:17.307Z,56.37
2017-08-26T09:05:17.427Z,55.57
2017-08-26T09:06:17.429Z,54.61
2017-08-26T09:07:17.482Z,56.08
2017-08-26T09:08:17.540Z,54.79
2017-08-26T09:09:17.600Z,57.20
2017-08-26T09:10:17.746Z,56.00
2017-08-26T09:11:17.724Z,57.14
2017-08-26T09:12:17.778Z,60.16
2017-08-26T09:13:17.835Z,60.30
2017-08-26T09:14:17.898Z,63.29
2017-08-26T09:15:18.043Z,61.44
2017-08-26T09:16:18.015Z,62.12
2017-08-26T09:17:18.072Z,60.31
2017-08-26T09:18:18.134Z,60.89
2017-08-26T09:19:18.191Z,60.60
2017-08-26T09:20:18.333Z,60.96
2017-08-26T09:21:18.310Z,63.17
2017-08-26T09:22:18.373Z,63.17
2017-08-26T09:23:18.424Z,63.84
2017-08-26T09:24:18.487Z,63.59
2017-08-26T09:25:18.629Z,62.12
2017-08-26T09:26:18.604Z,64.69
2017-08-26T09:27:18.658Z,59.74
2017-08-26T09:28:18.720Z,58.87
2017-08-26T09:29:18.777Z,58.48
2017-08-26T09:30:18.901Z,57.21
2017-08-26T09:31:18.961Z,56.43
2017-08-26T09:32:18.951Z,57.60
2017-08-26T09:33:19.011Z,57.92
2017-08-26T09:34:19.071Z,62.15
2017-08-26T09:35:19.128Z,55.73
2017-08-26T09:36:19.261Z,59.67
2017-08-26T09:37:19.253Z,53.22
2017-08-26T09:38:19.304Z,53.39
2017-08-26T09:39:19.364Z,54.30
2017-08-26T09:40:19.426Z,54.36
2017-08-26T09:41:19.565Z,55.71
2017-08-26T09:42:19.558Z,54.73
2017-08-26T09:43:19.623Z,56.10
2017-08-26T09:44:19.660Z,54.99
2017-08-26T09:45:19.720Z,55.36
2017-08-26T09:46:19.843Z,57.21
2017-08-26T09:47:19.907Z,56.23
2017-08-26T09:48:19.907Z,58.06
2017-08-26T09:49:19.958Z,60.49
2017-08-26T09:50:20.020Z,57.86
2017-08-26T09:51:20.078Z,56.62
2017-08-26T09:52:20.201Z,55.68
2017-08-26T09:53:20.195Z,57.82
2017-08-26T09:54:20.254Z,55.61
2017-08-26T09:55:20.313Z,56.02
2017-08-26T09:56:20.376Z,56.02
2017-08-26T09:57:20.496Z,54.07
2017-08-26T09:58:20.514Z,52.73
2017-08-26T09:59:20.552Z,53.19
2017-08-26T10:00:20.620Z,54.63
2017-08-26T10:01:20.677Z,55.05
2017-08-26T10:02:20.817Z,54.24
2017-08-26T10:03:20.794Z,54.60
2017-08-26T10:04:20.851Z,56.46
2017-08-26T10:05:20.935Z,57.59
2017-08-26T10:06:20.971Z,55.12
2017-08-26T10:07:21.116Z,55.07
2017-08-26T10:08:21.096Z,56.75
2017-08-26T10:09:21.155Z,57.46
2017-08-26T10:10:21.214Z,56.22
2017-08-26T10:11:21.271Z,52.83
2017-08-26T10:12:21.413Z,51.92
2017-08-26T10:13:21.394Z,54.30
2017-08-26T10:14:21.451Z,56.18
2017-08-26T10:15:21.514Z,55.10
2017-08-26T10:16:21.574Z,54.52
2017-08-26T10:17:22.006Z,54.32
2017-08-26T10:18:21.690Z,54.59
2017-08-26T10:19:21.752Z,55.27
2017-08-26T10:20:21.812Z,55.34
2017-08-26T10:21:21.872Z,56.51
2017-08-26T10:22:21.934Z,54.70
2017-08-26T10:23:22.070Z,55.87
2017-08-26T10:24:22.056Z,55.97
2017-08-26T10:25:22.117Z,54.41
2017-08-26T10:26:22.173Z,54.21
2017-08-26T10:27:22.234Z,55.58
2017-08-26T10:28:22.363Z,55.97
2017-08-26T10:29:22.357Z,56.85
2017-08-26T10:30:22.417Z,59.19
2017-08-26T10:31:22.477Z,60.68
2017-08-26T10:32:22.541Z,59.02
2017-08-26T10:34:09.367Z,58.79
2017-08-26T10:35:19.026Z,55.86
2017-08-26T10:36:19.024Z,55.86
2017-08-26T10:37:19.080Z,54.63
2017-08-26T10:38:19.206Z,55.90
2017-08-26T10:39:19.199Z,56.61
2017-08-26T10:40:19.259Z,54.83
2017-08-26T10:41:19.318Z,56.32
2017-08-26T10:42:19.383Z,54.95
2017-08-26T10:43:19.531Z,55.83
2017-08-26T10:44:19.500Z,59.74
2017-08-26T10:45:20.238Z,60.03
2017-08-26T10:46:19.619Z,55.73
2017-08-26T10:47:19.679Z,58.66
2017-08-26T10:48:19.806Z,57.29
2017-08-26T10:49:19.865Z,56.71
2017-08-26T10:50:19.858Z,56.20
2017-08-26T10:51:19.921Z,55.51
2017-08-26T10:52:19.980Z,54.63
2017-08-26T10:53:20.042Z,55.80
2017-08-26T10:54:20.166Z,55.80
2017-08-26T10:55:20.165Z,54.46
2017-08-26T10:56:20.225Z,56.02
2017-08-26T10:57:20.286Z,53.39
2017-08-26T10:58:20.344Z,53.88
2017-08-26T10:59:20.491Z,53.29
2017-08-26T11:00:20.463Z,52.22
2017-08-26T11:01:20.526Z,55.66
2017-08-26T11:02:20.586Z,56.41
2017-08-26T11:03:20.650Z,53.29
2017-08-26T11:04:20.772Z,50.95
2017-08-26T11:05:20.836Z,54.07
2017-08-26T11:06:20.827Z,56.22
2017-08-26T11:07:20.889Z,56.22
2017-08-26T11:08:20.949Z,56.71
2017-08-26T11:09:21.007Z,60.68
2017-08-26T11:10:21.140Z,56.20
2017-08-26T11:11:21.131Z,56.10
2017-08-26T11:12:21.191Z,57.95
2017-08-26T11:13:21.253Z,57.43
2017-08-26T11:14:21.310Z,59.58
2017-08-26T11:15:21.457Z,61.82
2017-08-26T11:16:21.433Z,62.60
2017-08-26T11:17:21.490Z,57.53
2017-08-26T11:18:21.552Z,57.43
2017-08-26T11:19:21.611Z,63.67
2017-08-26T11:20:21.740Z,58.50
2017-08-26T11:21:21.799Z,59.31
2017-08-26T11:22:21.793Z,60.00
2017-08-26T11:23:21.850Z,55.58
2017-08-26T11:24:21.913Z,54.58
2017-08-26T11:25:21.972Z,55.55
2017-08-26T11:26:22.095Z,57.60
2017-08-26T11:27:22.091Z,60.72
2017-08-26T11:28:22.154Z,62.47
2017-08-26T11:29:22.211Z,64.03
2017-08-26T11:30:22.270Z,59.52
2017-08-26T11:31:22.416Z,60.39
2017-08-26T11:32:22.393Z,63.22
2017-08-26T11:33:22.452Z,61.96
2017-08-26T11:34:22.515Z,64.39
2017-08-26T11:35:22.572Z,64.29
2017-08-26T11:36:22.721Z,65.17
2017-08-26T11:37:22.696Z,62.90
2017-08-26T11:38:22.745Z,63.87
2017-08-26T11:39:22.810Z,66.89
2017-08-26T11:40:22.876Z,66.89
2017-08-26T11:41:23.010Z,68.93
2017-08-26T11:42:22.992Z,70.07
2017-08-26T11:43:23.049Z,67.73
2017-08-26T11:44:23.110Z,71.72
2017-08-26T11:45:23.167Z,70.78
2017-08-26T11:46:23.311Z,68.80
2017-08-26T11:47:23.283Z,69.58
2017-08-26T11:48:23.343Z,71.33
2017-08-26T11:49:23.400Z,72.92
2017-08-26T11:50:23.462Z,71.23
2017-08-26T11:51:23.604Z,71.23
2017-08-26T11:52:23.579Z,70.85
2017-08-26T11:53:23.638Z,63.65
2017-08-26T11:54:23.717Z,64.17
2017-08-26T11:55:23.758Z,67.67
2017-08-26T11:56:23.900Z,66.02
2017-08-26T11:57:23.877Z,69.52
2017-08-26T11:58:23.935Z,66.53
2017-08-26T11:59:23.994Z,62.99
2017-08-26T12:00:24.051Z,62.44
2017-08-26T12:01:24.195Z,60.69
2017-08-26T12:02:24.171Z,61.47
2017-08-26T12:03:24.776Z,59.45
2017-08-26T12:04:24.293Z,63.25
2017-08-26T12:05:24.350Z,58.73
2017-08-26T12:06:24.492Z,56.65
2017-08-26T12:07:24.473Z,58.14
2017-08-26T12:08:24.526Z,58.24
2017-08-26T12:09:24.586Z,51.63
2017-08-26T12:10:24.648Z,49.88
2017-08-26T12:11:24.774Z,42.68
2017-08-26T12:12:24.840Z,44.16
2017-08-26T12:13:24.830Z,45.14
2017-08-26T12:14:24.890Z,42.91
2017-08-26T12:15:24.963Z,46.26
2017-08-26T12:16:25.013Z,52.93
2017-08-26T12:17:25.141Z,47.75
2017-08-26T12:18:25.135Z,47.16
2017-08-26T12:19:25.197Z,46.65
2017-08-26T12:20:25.257Z,47.72
2017-08-26T12:21:25.319Z,51.34
2017-08-26T12:22:25.450Z,50.68
2017-08-26T12:23:25.441Z,49.02
2017-08-26T12:24:25.503Z,48.43
2017-08-26T12:25:25.565Z,49.99
2017-08-26T12:26:25.630Z,48.50
2017-08-26T12:27:25.755Z,45.20
2017-08-26T12:28:25.752Z,43.13
2017-08-26T12:29:25.814Z,40.90
2017-08-26T12:30:25.880Z,44.52
2017-08-26T12:31:25.940Z,42.88
2017-08-26T12:32:26.073Z,46.30
2017-08-26T12:33:26.064Z,46.89
2017-08-26T12:34:26.128Z,43.95
2017-08-26T12:35:26.192Z,46.01
2017-08-26T12:36:26.259Z,40.63
2017-08-26T12:37:26.406Z,41.60
2017-08-26T12:38:26.379Z,39.06
2017-08-26T12:39:26.446Z,41.72
2017-08-26T12:40:26.509Z,42.68
2017-08-26T12:41:26.571Z,41.00
2017-08-26T12:42:26.723Z,41.70
2017-08-26T12:43:26.703Z,42.85
2017-08-26T12:44:26.763Z,42.03
2017-08-26T12:45:26.825Z,42.61
2017-08-26T12:46:26.894Z,44.89
2017-08-26T12:47:27.020Z,42.60
2017-08-26T12:48:27.082Z,42.99
2017-08-26T12:49:27.083Z,44.38
2017-08-26T12:50:27.145Z,42.81
2017-08-26T12:51:27.209Z,42.71
2017-08-26T12:52:27.273Z,42.74
2017-08-26T12:53:27.399Z,44.38
2017-08-26T12:54:27.400Z,46.82